createdAt,value
2018-02-23T00:01:14.485Z,99691
2018-02-23T00:03:22.281Z,99687
2018-02-23T00:05:30.970Z,99685
2018-02-23T00:07:49.514Z,99686
2018-02-23T00:10:00.588Z,99687
2018-02-23T00:12:16.216Z,99693
2018-02-23T00:14:27.542Z,99696
2018-02-23T00:16:38.146Z,99695
2018-02-23T00:21:14.952Z,99691
2018-02-23T00:23:24.334Z,99691
2018-02-23T00:25:35.984Z,99690
2018-02-23T00:27:54.310Z,99692
2018-02-23T00:30:19.696Z,99693
2018-02-23T00:32:28.644Z,99697
2018-02-23T00:34:45.552Z,99697
2018-02-23T00:37:05.139Z,99707
2018-02-23T00:39:13.648Z,99700
2018-02-23T00:41:28.522Z,99702
2018-02-23T00:43:40.003Z,99701
2018-02-23T00:48:13.085Z,99705
2018-02-23T00:50:20.459Z,99704
2018-02-23T00:52:28.347Z,99704
2018-02-23T00:54:36.051Z,99702
2018-02-23T00:56:45.292Z,99706
2018-02-23T00:58:51.750Z,99705
2018-02-23T01:00:59.990Z,99700
2018-02-23T01:03:09.254Z,99699
2018-02-23T01:05:18.833Z,99695
2018-02-23T01:07:29.779Z,99695
2018-02-23T01:09:58.157Z,99692
2018-02-23T01:12:06.120Z,99695
2018-02-23T01:14:16.439Z,99696
2018-02-23T01:16:25.752Z,99693
2018-02-23T01:18:33.204Z,99690
2018-02-23T01:20:45.714Z,99683
2018-02-23T01:23:05.921Z,99683
2018-02-23T01:25:18.727Z,99680
2018-02-23T01:27:29.748Z,99680
2018-02-23T01:29:41.038Z,99677
2018-02-23T01:32:27.801Z,99677
2018-02-23T01:37:17.395Z,99673
2018-02-23T01:39:27.908Z,99671
2018-02-23T01:41:38.129Z,99677
2018-02-23T01:43:50.352Z,99674
2018-02-23T01:45:59.115Z,99667
2018-02-23T01:48:13.910Z,99660
2018-02-23T01:50:25.998Z,99656
2018-02-23T01:52:38.721Z,99648
2018-02-23T01:57:18.302Z,99647
2018-02-23T01:59:32.162Z,99648
2018-02-23T02:01:43.420Z,99650
2018-02-23T02:03:53.189Z,99646
2018-02-23T02:06:06.644Z,99648
2018-02-23T02:08:12.716Z,99644
2018-02-23T02:10:19.279Z,99640
2018-02-23T02:12:25.716Z,99641
2018-02-23T02:14:34.718Z,99639
2018-02-23T02:16:40.547Z,99643
2018-02-23T02:18:45.817Z,99640
2018-02-23T02:20:51.952Z,99642
2018-02-23T02:22:59.045Z,99639
2018-02-23T02:25:04.962Z,99637
2018-02-23T02:27:10.635Z,99640
2018-02-23T02:29:17.181Z,99639
2018-02-23T02:31:22.472Z,99637
2018-02-23T02:33:28.386Z,99638
2018-02-23T02:35:34.630Z,99637
2018-02-23T02:37:40.713Z,99641
2018-02-23T02:39:46.716Z,99637
2018-02-23T02:41:52.956Z,99632
2018-02-23T02:43:59.156Z,99630
2018-02-23T02:46:05.697Z,99628
2018-02-23T02:48:12.111Z,99631
2018-02-23T02:50:17.417Z,99634
2018-02-23T02:52:23.321Z,99637
2018-02-23T02:54:29.533Z,99636
2018-02-23T02:56:35.487Z,99633
2018-02-23T02:58:41.274Z,99636
2018-02-23T03:00:47.397Z,99636
2018-02-23T03:02:53.473Z,99634
2018-02-23T03:05:02.103Z,99637
2018-02-23T03:07:08.236Z,99635
2018-02-23T03:09:15.014Z,99632
2018-02-23T03:11:21.024Z,99640
2018-02-23T03:13:39.090Z,99643
2018-02-23T03:15:45.085Z,99649
2018-02-23T03:17:51.356Z,99655
2018-02-23T03:19:57.866Z,99649
2018-02-23T03:22:03.967Z,99651
2018-02-23T03:30:17.208Z,99648
2018-02-23T03:32:23.330Z,99643
2018-02-23T03:34:29.498Z,99641
2018-02-23T03:36:36.128Z,99645
2018-02-23T03:38:42.184Z,99646
2018-02-23T03:40:47.470Z,99648
2018-02-23T03:42:53.826Z,99656
2018-02-23T03:45:01.136Z,99660
2018-02-23T03:47:07.064Z,99652
2018-02-23T03:49:13.543Z,99650
2018-02-23T03:51:19.252Z,99646
2018-02-23T03:53:25.762Z,99649
2018-02-23T03:55:37.917Z,99641
2018-02-23T03:57:43.664Z,99644
2018-02-23T03:59:49.675Z,99643
2018-02-23T04:01:57.699Z,99638
2018-02-23T04:04:03.633Z,99637
2018-02-23T04:06:09.500Z,99636
2018-02-23T04:08:15.483Z,99639
2018-02-23T04:10:21.804Z,99628
2018-02-23T04:12:27.632Z,99632
2018-02-23T04:14:33.483Z,99631
2018-02-23T04:16:40.173Z,99633
2018-02-23T04:18:46.455Z,99633
2018-02-23T04:20:52.403Z,99636
2018-02-23T04:22:58.160Z,99636
2018-02-23T04:25:04.681Z,99638
2018-02-23T04:27:11.022Z,99639
2018-02-23T04:29:17.146Z,99635
2018-02-23T04:31:22.995Z,99636
2018-02-23T04:33:29.092Z,99641
2018-02-23T04:35:35.230Z,99638
2018-02-23T04:37:40.972Z,99647
2018-02-23T04:39:47.188Z,99646
2018-02-23T04:41:53.377Z,99654
2018-02-23T04:44:00.141Z,99651
2018-02-23T04:46:06.342Z,99649
2018-02-23T04:48:13.397Z,99652
2018-02-23T04:50:19.292Z,99653
2018-02-23T04:52:25.132Z,99656
2018-02-23T04:54:30.936Z,99658
2018-02-23T04:56:37.295Z,99663
2018-02-23T04:58:43.346Z,99659
2018-02-23T05:00:49.824Z,99660
2018-02-23T05:02:56.453Z,99657
2018-02-23T05:05:02.672Z,99660
2018-02-23T05:07:10.440Z,99663
2018-02-23T05:09:15.733Z,99664
2018-02-23T05:11:21.699Z,99666
2018-02-23T05:13:28.005Z,99664
2018-02-23T05:15:34.637Z,99670
2018-02-23T05:17:40.643Z,99670
2018-02-23T05:19:46.746Z,99670
2018-02-23T05:21:52.716Z,99670
2018-02-23T05:23:59.500Z,99673
2018-02-23T05:26:05.312Z,99669
2018-02-23T05:28:11.730Z,99676
2018-02-23T05:30:17.665Z,99679
2018-02-23T05:32:23.598Z,99674
2018-02-23T05:34:29.395Z,99668
2018-02-23T05:36:35.473Z,99672
2018-02-23T05:38:41.604Z,99667
2018-02-23T05:40:47.644Z,99673
2018-02-23T05:42:53.933Z,99669
2018-02-23T05:45:00.887Z,99670
2018-02-23T05:47:06.845Z,99673
2018-02-23T05:49:13.065Z,99675
2018-02-23T05:51:18.356Z,99678
2018-02-23T05:53:24.616Z,99680
2018-02-23T05:55:34.539Z,99686
2018-02-23T05:57:41.666Z,99684
2018-02-23T05:59:47.442Z,99680
2018-02-23T06:01:53.570Z,99681
2018-02-23T06:03:59.250Z,99690
2018-02-23T06:06:04.544Z,99686
2018-02-23T06:08:09.987Z,99694
2018-02-23T06:10:15.500Z,99696
2018-02-23T06:12:44.779Z,99694
2018-02-23T06:14:50.656Z,99701
2018-02-23T06:16:55.983Z,99706
2018-02-23T06:19:01.958Z,99705
2018-02-23T06:21:07.897Z,99705
2018-02-23T06:23:13.182Z,99705
2018-02-23T06:25:18.884Z,99705
2018-02-23T06:27:24.921Z,99709
2018-02-23T06:29:30.180Z,99713
2018-02-23T06:31:35.630Z,99714
2018-02-23T06:33:41.200Z,99713
2018-02-23T06:35:47.500Z,99708
2018-02-23T06:37:53.347Z,99716
2018-02-23T06:39:59.738Z,99719
2018-02-23T06:42:05.158Z,99725
2018-02-23T06:44:10.397Z,99732
2018-02-23T06:46:16.055Z,99729
2018-02-23T06:48:21.400Z,99735
2018-02-23T06:50:28.513Z,99732
2018-02-23T06:52:34.150Z,99738
2018-02-23T06:54:40.233Z,99735
2018-02-23T06:56:45.533Z,99735
2018-02-23T06:58:51.892Z,99730
2018-02-23T07:00:57.125Z,99735
2018-02-23T07:03:02.849Z,99734
2018-02-23T07:07:18.852Z,99746
2018-02-23T07:09:24.212Z,99751
2018-02-23T07:11:29.799Z,99747
2018-02-23T07:13:39.670Z,99750
2018-02-23T07:15:44.885Z,99757
2018-02-23T07:17:50.098Z,99761
2018-02-23T07:19:56.284Z,99761
2018-02-23T07:22:01.619Z,99758
2018-02-23T07:24:07.556Z,99755
2018-02-23T07:26:13.459Z,99752
2018-02-23T07:28:19.631Z,99752
2018-02-23T07:30:29.960Z,99743
2018-02-23T07:32:35.719Z,99751
2018-02-23T07:34:41.678Z,99754
2018-02-23T07:36:48.059Z,99749
2018-02-23T07:38:53.280Z,99759
2018-02-23T07:40:59.268Z,99765
2018-02-23T07:43:04.876Z,99760
2018-02-23T07:45:10.233Z,99761
2018-02-23T07:47:16.349Z,99764
2018-02-23T07:49:22.301Z,99760
2018-02-23T07:51:28.281Z,99760
2018-02-23T07:53:33.760Z,99758
2018-02-23T07:55:39.914Z,99766
2018-02-23T07:57:45.823Z,99765
2018-02-23T07:59:52.237Z,99765
2018-02-23T08:02:00.787Z,99762
2018-02-23T08:04:06.702Z,99766
2018-02-23T08:06:12.326Z,99768
2018-02-23T08:08:17.636Z,99766
2018-02-23T08:10:27.090Z,99772
2018-02-23T08:12:32.624Z,99768
2018-02-23T08:14:38.064Z,99776
2018-02-23T08:16:43.426Z,99777
2018-02-23T08:18:49.128Z,99782
2018-02-23T08:20:57.489Z,99784
2018-02-23T08:23:03.460Z,99783
2018-02-23T08:25:09.161Z,99788
2018-02-23T08:27:15.194Z,99783
2018-02-23T08:29:20.572Z,99779
2018-02-23T08:31:27.133Z,99780
2018-02-23T08:33:32.574Z,99775
2018-02-23T08:35:38.850Z,99767
2018-02-23T08:37:44.197Z,99772
2018-02-23T08:39:49.828Z,99778
2018-02-23T08:41:55.523Z,99777
2018-02-23T08:44:00.836Z,99777
2018-02-23T08:46:06.446Z,99784
2018-02-23T08:48:13.619Z,99789
2018-02-23T08:50:18.897Z,99791
2018-02-23T08:52:24.208Z,99793
2018-02-23T08:54:30.250Z,99789
2018-02-23T08:56:36.273Z,99789
2018-02-23T08:58:42.279Z,99789
2018-02-23T09:00:49.350Z,99791
2018-02-23T09:02:55.560Z,99784
2018-02-23T09:05:00.769Z,99776
2018-02-23T09:07:08.864Z,99784
2018-02-23T09:09:14.184Z,99781
2018-02-23T09:11:20.035Z,99778
2018-02-23T09:13:26.736Z,99783
2018-02-23T09:15:32.184Z,99782
2018-02-23T09:17:39.163Z,99783
2018-02-23T09:19:46.757Z,99783
2018-02-23T09:21:52.050Z,99783
2018-02-23T09:23:57.869Z,99781
2018-02-23T09:26:04.073Z,99783
2018-02-23T09:28:09.896Z,99783
2018-02-23T09:30:16.502Z,99778
2018-02-23T09:32:27.070Z,99778
2018-02-23T09:34:47.318Z,99779
2018-02-23T09:36:52.764Z,99775
2018-02-23T09:38:59.568Z,99783
2018-02-23T09:41:04.908Z,99776
2018-02-23T09:43:10.720Z,99777
2018-02-23T09:45:16.649Z,99788
2018-02-23T09:47:21.863Z,99784
2018-02-23T09:49:27.123Z,99787
2018-02-23T09:51:32.819Z,99785
2018-02-23T09:53:38.905Z,99781
2018-02-23T09:55:44.908Z,99773
2018-02-23T09:57:50.744Z,99779
2018-02-23T09:59:56.697Z,99787
2018-02-23T10:02:02.603Z,99776
2018-02-23T10:04:08.652Z,99782
2018-02-23T10:06:14.361Z,99786
2018-02-23T10:08:20.033Z,99788
2018-02-23T10:10:25.342Z,99779
2018-02-23T10:12:30.996Z,99777
2018-02-23T10:14:36.859Z,99791
2018-02-23T10:16:42.208Z,99786
2018-02-23T10:18:47.977Z,99780
2018-02-23T10:20:53.374Z,99785
2018-02-23T10:22:58.673Z,99786
2018-02-23T10:25:04.308Z,99784
2018-02-23T10:27:10.584Z,99782
2018-02-23T10:29:15.911Z,99786
2018-02-23T10:31:21.560Z,99789
2018-02-23T10:33:26.893Z,99783
2018-02-23T10:35:32.438Z,99775
2018-02-23T10:37:37.986Z,99770
2018-02-23T10:39:45.414Z,99763
2018-02-23T10:41:51.051Z,99760
2018-02-23T10:43:57.416Z,99771
2018-02-23T10:46:02.829Z,99766
2018-02-23T10:48:08.194Z,99769
2018-02-23T10:50:14.443Z,99768
2018-02-23T10:52:19.816Z,99753
2018-02-23T10:54:25.332Z,99756
2018-02-23T10:56:30.954Z,99758
2018-02-23T10:58:36.462Z,99768
2018-02-23T11:00:41.791Z,99769
2018-02-23T11:02:47.624Z,99767
2018-02-23T11:04:53.074Z,99768
2018-02-23T11:07:04.614Z,99760
2018-02-23T11:09:10.249Z,99766
2018-02-23T11:11:16.424Z,99763
2018-02-23T11:13:22.537Z,99759
2018-02-23T11:15:28.375Z,99756
2018-02-23T11:17:33.980Z,99751
2018-02-23T11:19:39.717Z,99753
2018-02-23T11:21:45.362Z,99748
2018-02-23T11:23:50.714Z,99750
2018-02-23T11:25:56.011Z,99746
2018-02-23T11:28:01.704Z,99750
2018-02-23T11:30:07.079Z,99743
2018-02-23T11:32:12.455Z,99747
2018-02-23T11:34:18.207Z,99743
2018-02-23T11:36:23.635Z,99754
2018-02-23T11:38:28.943Z,99747
2018-02-23T11:40:54.124Z,99740
2018-02-23T11:42:59.464Z,99745
2018-02-23T11:45:05.115Z,99747
2018-02-23T11:47:11.501Z,99738
2018-02-23T11:49:21.462Z,99744
2018-02-23T11:51:27.262Z,99740
2018-02-23T11:53:32.818Z,99737
2018-02-23T11:55:38.161Z,99737
2018-02-23T11:57:45.580Z,99728
2018-02-23T11:59:51.256Z,99739
2018-02-23T12:01:56.536Z,99734
2018-02-23T12:04:01.862Z,99734
2018-02-23T12:06:08.412Z,99737
2018-02-23T12:08:14.326Z,99737
2018-02-23T12:10:21.465Z,99741
2018-02-23T12:12:27.732Z,99740
2018-02-23T12:14:33.142Z,99740
2018-02-23T12:16:38.536Z,99744
2018-02-23T12:18:44.201Z,99741
2018-02-23T12:20:49.640Z,99737
2018-02-23T12:22:55.014Z,99735
2018-02-23T12:25:00.687Z,99726
2018-02-23T12:27:06.048Z,99726
2018-02-23T12:29:11.345Z,99730
2018-02-23T12:31:17.010Z,99729
2018-02-23T12:33:22.356Z,99723
2018-02-23T12:35:27.758Z,99728
2018-02-23T12:37:33.464Z,99727
2018-02-23T12:39:38.831Z,99722
2018-02-23T12:41:44.719Z,99723
2018-02-23T12:43:51.727Z,99712
2018-02-23T12:45:57.023Z,99710
2018-02-23T12:48:06.763Z,99707
2018-02-23T12:50:13.452Z,99696
2018-02-23T12:52:18.838Z,99710
2018-02-23T12:54:24.129Z,99709
2018-02-23T12:56:29.774Z,99707
2018-02-23T12:58:35.833Z,99706
2018-02-23T13:00:42.468Z,99710
2018-02-23T13:02:48.070Z,99712
2018-02-23T13:04:53.835Z,99706
2018-02-23T13:06:59.869Z,99708
2018-02-23T13:09:06.892Z,99707
2018-02-23T13:11:12.678Z,99702
2018-02-23T13:13:18.041Z,99700
2018-02-23T13:15:23.920Z,99699
2018-02-23T13:17:32.420Z,99702
2018-02-23T13:19:37.728Z,99701
2018-02-23T13:21:43.786Z,99703
2018-02-23T13:23:49.064Z,99689
2018-02-23T13:25:54.378Z,99693
2018-02-23T13:28:03.904Z,99697
2018-02-23T13:30:09.366Z,99688
2018-02-23T13:32:16.108Z,99686
2018-02-23T13:34:22.456Z,99683
2018-02-23T13:36:27.948Z,99677
2018-02-23T13:38:33.194Z,99678
2018-02-23T13:40:39.532Z,99682
2018-02-23T13:42:45.563Z,99684
2018-02-23T13:44:50.977Z,99684
2018-02-23T13:46:57.210Z,99678
2018-02-23T13:49:02.538Z,99681
2018-02-23T13:51:07.999Z,99674
2018-02-23T13:53:17.977Z,99680
2018-02-23T13:55:23.418Z,99676
2018-02-23T13:57:28.710Z,99681
2018-02-23T13:59:34.373Z,99672
2018-02-23T14:01:39.731Z,99675
2018-02-23T14:03:45.156Z,99672
2018-02-23T14:05:50.821Z,99676
2018-02-23T14:07:57.979Z,99671
2018-02-23T14:10:04.390Z,99671
2018-02-23T14:12:10.072Z,99659
2018-02-23T14:14:16.136Z,99670
2018-02-23T14:16:21.956Z,99667
2018-02-23T14:18:27.628Z,99662
2018-02-23T14:20:33.497Z,99656
2018-02-23T14:22:39.586Z,99654
2018-02-23T14:24:45.230Z,99662
2018-02-23T14:26:50.599Z,99669
2018-02-23T14:28:55.937Z,99668
2018-02-23T14:31:02.322Z,99655
2018-02-23T14:33:07.854Z,99664
2018-02-23T14:35:13.365Z,99660
2018-02-23T14:37:19.563Z,99639
2018-02-23T14:39:24.884Z,99658
2018-02-23T14:41:30.263Z,99662
2018-02-23T14:43:35.865Z,99666
2018-02-23T14:45:44.152Z,99663
2018-02-23T14:47:49.586Z,99662
2018-02-23T14:50:03.501Z,99674
2018-02-23T14:52:08.816Z,99680
2018-02-23T14:54:14.500Z,99677
2018-02-23T14:56:20.065Z,99677
2018-02-23T14:58:25.364Z,99672
2018-02-23T15:00:30.713Z,99673
2018-02-23T15:02:36.496Z,99666
2018-02-23T15:04:42.024Z,99673
2018-02-23T15:06:48.340Z,99674
2018-02-23T15:08:54.378Z,99672
2018-02-23T15:10:59.757Z,99675
2018-02-23T15:13:05.107Z,99672
2018-02-23T15:15:10.721Z,99680
2018-02-23T15:17:16.632Z,99680
2018-02-23T15:19:22.193Z,99677
2018-02-23T15:21:27.827Z,99682
2018-02-23T15:23:33.155Z,99673
2018-02-23T15:25:38.461Z,99681
2018-02-23T15:27:44.101Z,99677
2018-02-23T15:29:50.248Z,99677
2018-02-23T15:32:31.178Z,99668
2018-02-23T15:34:37.787Z,99673
2018-02-23T15:36:43.049Z,99673
2018-02-23T15:38:49.018Z,99674
2018-02-23T15:40:54.608Z,99674
2018-02-23T15:43:00.870Z,99679
2018-02-23T15:45:06.348Z,99665
2018-02-23T15:47:12.139Z,99657
2018-02-23T15:49:18.692Z,99664
2018-02-23T15:51:24.288Z,99668
2018-02-23T15:54:53.741Z,99674
2018-02-23T15:56:59.361Z,99673
2018-02-23T15:59:05.279Z,99671
2018-02-23T16:01:10.850Z,99677
2018-02-23T16:03:16.928Z,99669
2018-02-23T16:05:22.718Z,99679
2018-02-23T16:07:28.135Z,99690
2018-02-23T16:09:34.321Z,99695
2018-02-23T16:11:40.239Z,99697
2018-02-23T16:13:45.797Z,99700
2018-02-23T16:16:02.493Z,99695
2018-02-23T16:18:09.143Z,99698
2018-02-23T16:20:14.991Z,99706
2018-02-23T16:22:20.329Z,99700
2018-02-23T16:24:26.493Z,99707
2018-02-23T16:26:32.069Z,99710
2018-02-23T16:28:37.456Z,99709
2018-02-23T16:30:43.340Z,99704
2018-02-23T16:32:55.938Z,99698
2018-02-23T16:35:02.174Z,99706
2018-02-23T16:37:07.804Z,99705
2018-02-23T16:39:18.195Z,99709
2018-02-23T16:41:23.479Z,99707
2018-02-23T16:43:29.125Z,99714
2018-02-23T16:45:34.422Z,99711
2018-02-23T16:47:39.763Z,99709
2018-02-23T16:49:45.522Z,99713
2018-02-23T16:51:50.874Z,99720
2018-02-23T16:53:58.463Z,99712
2018-02-23T16:56:04.096Z,99709
2018-02-23T16:58:09.393Z,99709
2018-02-23T17:00:15.121Z,99707
2018-02-23T17:02:20.697Z,99711
2018-02-23T17:04:26.463Z,99724
2018-02-23T17:06:31.972Z,99730
2018-02-23T17:08:37.690Z,99728
2018-02-23T17:10:43.002Z,99729
2018-02-23T17:12:48.328Z,99735
2018-02-23T17:14:53.853Z,99738
2018-02-23T17:16:59.164Z,99735
2018-02-23T17:19:09.325Z,99730
2018-02-23T17:21:14.954Z,99739
2018-02-23T17:23:20.398Z,99735
2018-02-23T17:25:25.736Z,99745
2018-02-23T17:27:31.384Z,99744
2018-02-23T17:29:38.456Z,99752
2018-02-23T17:31:44.816Z,99752
2018-02-23T17:33:51.509Z,99752
2018-02-23T17:35:59.439Z,99756
2018-02-23T17:38:05.702Z,99750
2018-02-23T17:40:11.309Z,99757
2018-02-23T17:42:16.769Z,99755
2018-02-23T17:44:22.129Z,99753
2018-02-23T17:46:27.872Z,99747
2018-02-23T17:48:33.180Z,99753
2018-02-23T17:50:38.406Z,99754
2018-02-23T17:52:43.952Z,99753
2018-02-23T17:54:49.405Z,99757
2018-02-23T17:56:54.759Z,99760
2018-02-23T17:59:06.660Z,99764
2018-02-23T18:01:11.972Z,99763
2018-02-23T18:03:17.345Z,99768
2018-02-23T18:05:22.982Z,99773
2018-02-23T18:07:28.356Z,99779
2018-02-23T18:09:33.674Z,99776
2018-02-23T18:11:39.294Z,99777
2018-02-23T18:13:44.553Z,99778
2018-02-23T18:15:49.897Z,99779
2018-02-23T18:17:56.546Z,99784
2018-02-23T18:20:02.394Z,99783
2018-02-23T18:22:07.761Z,99782
2018-02-23T18:24:13.363Z,99781
2018-02-23T18:26:18.697Z,99782
2018-02-23T18:28:23.956Z,99781
2018-02-23T18:30:29.945Z,99782
2018-02-23T18:32:35.308Z,99788
2018-02-23T18:34:40.647Z,99782
2018-02-23T18:36:46.329Z,99791
2018-02-23T18:38:51.656Z,99786
2018-02-23T18:40:57.041Z,99790
2018-02-23T18:43:02.563Z,99784
2018-02-23T18:45:07.972Z,99788
2018-02-23T18:47:13.340Z,99787
2018-02-23T18:49:18.920Z,99790
2018-02-23T18:51:24.792Z,99792
2018-02-23T18:53:30.073Z,99797
2018-02-23T18:55:36.104Z,99794
2018-02-23T18:57:42.711Z,99792
2018-02-23T18:59:48.582Z,99790
2018-02-23T19:01:54.486Z,99793
2018-02-23T19:03:59.948Z,99793
2018-02-23T19:06:05.769Z,99796
2018-02-23T19:08:11.641Z,99797
2018-02-23T19:10:17.016Z,99798
2018-02-23T19:12:23.083Z,99794
2018-02-23T19:14:28.888Z,99795
2018-02-23T19:16:34.421Z,99796
2018-02-23T19:18:39.800Z,99801
2018-02-23T19:20:45.501Z,99803
2018-02-23T19:22:52.610Z,99806
2018-02-23T19:24:58.394Z,99806
2018-02-23T19:27:03.961Z,99801
2018-02-23T19:29:09.441Z,99810
2018-02-23T19:31:14.750Z,99812
2018-02-23T19:33:20.420Z,99821
2018-02-23T19:35:27.398Z,99818
2018-02-23T19:37:32.726Z,99826
2018-02-23T19:39:39.188Z,99827
2018-02-23T19:41:44.655Z,99830
2018-02-23T19:43:50.241Z,99832
2018-02-23T19:45:57.015Z,99836
2018-02-23T19:48:02.586Z,99839
2018-02-23T19:50:08.080Z,99844
2018-02-23T19:52:13.680Z,99844
2018-02-23T19:54:18.978Z,99848
2018-02-23T19:56:24.303Z,99851
2018-02-23T19:58:29.888Z,99848
2018-02-23T20:00:35.164Z,99849
2018-02-23T20:02:40.749Z,99846
2018-02-23T20:04:46.338Z,99845
2018-02-23T20:06:51.808Z,99845
2018-02-23T20:08:59.244Z,99847
2018-02-23T20:11:04.770Z,99846
2018-02-23T20:13:10.038Z,99846
2018-02-23T20:15:15.337Z,99843
2018-02-23T20:17:20.911Z,99846
2018-02-23T20:19:27.393Z,99848
2018-02-23T20:21:34.945Z,99848
2018-02-23T20:23:41.937Z,99843
2018-02-23T20:25:47.231Z,99838
2018-02-23T20:27:52.552Z,99833
2018-02-23T20:30:00.241Z,99832
2018-02-23T20:32:05.557Z,99826
2018-02-23T20:34:10.829Z,99831
2018-02-23T20:36:16.530Z,99835
2018-02-23T20:38:21.748Z,99838
2018-02-23T20:40:27.066Z,99839
2018-02-23T20:42:32.701Z,99844
2018-02-23T20:44:38.001Z,99845
2018-02-23T20:46:43.812Z,99851
2018-02-23T20:48:49.470Z,99859
2018-02-23T20:50:54.800Z,99857
2018-02-23T20:53:00.098Z,99851
2018-02-23T20:55:05.755Z,99859
2018-02-23T20:57:10.996Z,99863
2018-02-23T20:59:16.829Z,99856
2018-02-23T21:01:22.362Z,99861
2018-02-23T21:03:27.668Z,99860
2018-02-23T21:05:32.913Z,99861
2018-02-23T21:07:38.452Z,99859
2018-02-23T21:09:43.717Z,99864
2018-02-23T21:11:49.711Z,99861
2018-02-23T21:13:55.749Z,99865
2018-02-23T21:16:01.859Z,99855
2018-02-23T21:18:07.109Z,99856
2018-02-23T21:20:12.805Z,99860
2018-02-23T21:22:18.138Z,99863
2018-02-23T21:24:24.510Z,99870
2018-02-23T21:26:30.066Z,99867
2018-02-23T21:28:35.373Z,99869
2018-02-23T21:30:40.693Z,99868
2018-02-23T21:32:46.363Z,99873
2018-02-23T21:34:52.233Z,99870
2018-02-23T21:36:57.498Z,99869
2018-02-23T21:39:03.112Z,99873
2018-02-23T21:41:08.422Z,99876
2018-02-23T21:43:13.700Z,99877
2018-02-23T21:45:19.256Z,99871
2018-02-23T21:47:24.562Z,99880
2018-02-23T21:49:29.839Z,99879
2018-02-23T21:51:35.356Z,99882
2018-02-23T21:53:40.624Z,99881
2018-02-23T21:55:45.925Z,99884
2018-02-23T21:57:52.223Z,99885
2018-02-23T21:59:57.799Z,99884
2018-02-23T22:02:03.268Z,99884
2018-02-23T22:04:09.344Z,99889
2018-02-23T22:06:14.645Z,99885
2018-02-23T22:08:20.040Z,99883
2018-02-23T22:10:26.165Z,99877
2018-02-23T22:12:32.215Z,99877
2018-02-23T22:14:37.564Z,99875
2018-02-23T22:16:43.224Z,99865
2018-02-23T22:18:48.509Z,99868
2018-02-23T22:20:53.796Z,99863
2018-02-23T22:22:59.714Z,99866
2018-02-23T22:25:05.476Z,99862
2018-02-23T22:27:10.888Z,99868
2018-02-23T22:29:16.813Z,99870
2018-02-23T22:31:22.260Z,99867
2018-02-23T22:33:27.730Z,99867
2018-02-23T22:35:33.509Z,99872
2018-02-23T22:37:38.751Z,99878
2018-02-23T22:39:44.120Z,99878
2018-02-23T22:41:50.185Z,99878
2018-02-23T22:43:56.300Z,99879
2018-02-23T22:46:02.001Z,99875
2018-02-23T22:48:07.496Z,99880
2018-02-23T22:50:13.018Z,99883
2018-02-23T22:52:18.333Z,99878
2018-02-23T22:54:24.068Z,99884
2018-02-23T22:56:29.523Z,99884
2018-02-23T22:58:35.572Z,99883
2018-02-23T23:00:41.424Z,99881
2018-02-23T23:02:47.095Z,99882
2018-02-23T23:04:52.639Z,99878
2018-02-23T23:07:03.215Z,99884
2018-02-23T23:09:09.084Z,99885
2018-02-23T23:11:15.041Z,99882
2018-02-23T23:13:21.241Z,99879
2018-02-23T23:15:29.455Z,99874
2018-02-23T23:17:34.856Z,99873
2018-02-23T23:19:40.492Z,99875
2018-02-23T23:21:46.976Z,99873
2018-02-23T23:23:52.926Z,99878
2018-02-23T23:25:58.573Z,99879
2018-02-23T23:28:04.540Z,99881
2018-02-23T23:36:30.289Z,99888
2018-02-23T23:38:35.664Z,99891
2018-02-23T23:40:41.980Z,99890
2018-02-23T23:42:47.400Z,99883
2018-02-23T23:44:57.210Z,99885
2018-02-23T23:47:03.438Z,99885
2018-02-23T23:49:08.737Z,99884
2018-02-23T23:51:14.469Z,99880
2018-02-23T23:53:20.091Z,99886
2018-02-23T23:55:26.122Z,99885
2018-02-23T23:57:32.340Z,99883
2018-02-23T23:59:38.186Z,99885
